Time;durP1;ratioP1;P1;durP2;ratioP2;P2;SDS_P1;SDS_P2;PMS_P1;PMS_P2;Temp;Humidity;BMP_temperature;BMP_pressure;BME280_temperature;BME280_humidity;BME280_pressure;Samples;Min_cycle;Max_cycle;Signal;HPM_P1;HPM_P2
2023/09/27 00:00:31;;;;;;;12.37;10.17;;;;;;;;;;5068220;28;20024;-81
2023/09/27 00:02:57;;;;;;;11.13;9.80;;;;;;;;;;5081583;28;20294;-81
2023/09/27 00:05:23;;;;;;;12.23;9.40;;;;;;;;;;5087356;28;20403;-82
2023/09/27 00:07:51;;;;;;;16.65;12.05;;;;;;;;;;5090249;28;20054;-82
2023/09/27 00:10:16;;;;;;;15.60;11.77;;;;;;;;;;5071832;28;20173;-82
2023/09/27 00:12:41;;;;;;;15.27;11.20;;;;;;;;;;5086067;28;20118;-81
2023/09/27 00:15:08;;;;;;;14.65;10.02;;;;;;;;;;5072157;28;20111;-82
2023/09/27 00:17:33;;;;;;;16.10;11.35;;;;;;;;;;5073713;28;20037;-81
2023/09/27 00:19:59;;;;;;;13.02;8.70;;;;;;;;;;5067894;28;20042;-81
2023/09/27 00:22:24;;;;;;;11.00;8.73;;;;;;;;;;5090680;28;20032;-81
2023/09/27 00:24:50;;;;;;;10.93;8.95;;;;;;;;;;5088114;28;20775;-81
2023/09/27 00:27:15;;;;;;;13.70;10.13;;;;;;;;;;5075069;28;20032;-81
2023/09/27 00:29:41;;;;;;;10.75;8.93;;;;;;;;;;5071753;28;20082;-82
2023/09/27 00:32:06;;;;;;;10.52;8.13;;;;;;;;;;5072200;28;20044;-82
2023/09/27 00:34:31;;;;;;;15.80;10.13;;;;;;;;;;5079546;28;20024;-81
2023/09/27 00:36:58;;;;;;;16.25;10.35;;;;;;;;;;5077285;28;20570;-81
2023/09/27 00:39:24;;;;;;;15.07;10.50;;;;;;;;;;5092571;28;20063;-82
2023/09/27 00:41:49;;;;;;;14.07;10.75;;;;;;;;;;5088758;28;20274;-81
2023/09/27 00:44:14;;;;;;;12.50;9.57;;;;;;;;;;5088111;28;20416;-81
2023/09/27 00:46:40;;;;;;;15.70;11.93;;;;;;;;;;5079448;28;20289;-82
2023/09/27 00:49:05;;;;;;;14.25;10.65;;;;;;;;;;5076225;28;20028;-82
2023/09/27 00:51:30;;;;;;;13.00;10.45;;;;;;;;;;5076691;28;20033;-81
2023/09/27 00:53:56;;;;;;;12.60;10.27;;;;;;;;;;5074991;28;20182;-81
2023/09/27 00:56:22;;;;;;;12.25;9.52;;;;;;;;;;5089983;28;20430;-82
2023/09/27 00:58:48;;;;;;;17.10;12.02;;;;;;;;;;5081210;28;20510;-81
2023/09/27 01:01:13;;;;;;;15.18;11.25;;;;;;;;;;5094811;28;20021;-81
2023/09/27 01:03:38;;;;;;;15.20;11.27;;;;;;;;;;5093306;28;20085;-81
2023/09/27 01:06:04;;;;;;;15.52;11.15;;;;;;;;;;5092331;28;20016;-81
2023/09/27 01:08:30;;;;;;;16.25;13.05;;;;;;;;;;5090924;28;20031;-82
2023/09/27 01:10:55;;;;;;;17.90;12.10;;;;;;;;;;5085581;28;20045;-82
2023/09/27 01:13:20;;;;;;;13.00;10.18;;;;;;;;;;5091154;28;20035;-82
2023/09/27 01:15:45;;;;;;;12.20;10.57;;;;;;;;;;5086350;28;20028;-82
2023/09/27 01:18:11;;;;;;;13.32;9.48;;;;;;;;;;5076459;28;20029;-81
2023/09/27 01:20:36;;;;;;;11.40;9.27;;;;;;;;;;5091255;28;20115;-81
2023/09/27 01:23:02;;;;;;;13.02;10.23;;;;;;;;;;5086260;28;20032;-81
2023/09/27 01:25:29;;;;;;;14.75;10.90;;;;;;;;;;5069722;28;20071;-81
2023/09/27 01:27:54;;;;;;;15.52;11.40;;;;;;;;;;5092450;28;20036;-81
2023/09/27 01:30:19;;;;;;;13.75;10.77;;;;;;;;;;5092551;28;20110;-80
2023/09/27 01:32:44;;;;;;;18.27;10.48;;;;;;;;;;5092761;28;20024;-80
2023/09/27 01:35:10;;;;;;;12.17;10.23;;;;;;;;;;5074946;28;20036;-81
2023/09/27 01:37:35;;;;;;;14.75;10.93;;;;;;;;;;5091806;28;20282;-81
2023/09/27 01:40:00;;;;;;;15.70;10.90;;;;;;;;;;5082759;28;20103;-81
2023/09/27 01:42:25;;;;;;;12.15;9.50;;;;;;;;;;5076458;28;20032;-81
2023/09/27 01:44:50;;;;;;;13.60;9.77;;;;;;;;;;5073491;28;20020;-81
2023/09/27 01:47:16;;;;;;;12.55;9.93;;;;;;;;;;5066249;28;20294;-80
2023/09/27 01:49:41;;;;;;;14.60;10.18;;;;;;;;;;5071561;28;20028;-81
2023/09/27 01:52:06;;;;;;;12.40;10.05;;;;;;;;;;5073494;28;20040;-82
2023/09/27 01:54:31;;;;;;;12.18;8.60;;;;;;;;;;5086952;28;20066;-81
2023/09/27 01:56:56;;;;;;;12.73;9.63;;;;;;;;;;5093323;28;20551;-81
2023/09/27 01:59:22;;;;;;;14.18;11.43;;;;;;;;;;5077303;28;20262;-81
2023/09/27 02:01:47;;;;;;;13.40;10.25;;;;;;;;;;5071435;28;20073;-81
2023/09/27 02:04:12;;;;;;;14.38;11.15;;;;;;;;;;5087134;28;20036;-81
2023/09/27 02:06:37;;;;;;;14.23;11.45;;;;;;;;;;5075212;28;20085;-81
2023/09/27 02:09:03;;;;;;;15.57;11.07;;;;;;;;;;5057148;28;20408;-82
2023/09/27 02:11:29;;;;;;;15.27;10.80;;;;;;;;;;5075099;28;20077;-82
2023/09/27 02:13:54;;;;;;;18.65;11.70;;;;;;;;;;5089597;28;20508;-81
2023/09/27 02:16:19;;;;;;;14.75;11.00;;;;;;;;;;5070178;28;20028;-82
2023/09/27 02:18:45;;;;;;;14.90;11.65;;;;;;;;;;5068513;28;20097;-82
2023/09/27 02:21:11;;;;;;;13.88;10.88;;;;;;;;;;5083943;28;20025;-83
2023/09/27 02:23:36;;;;;;;15.20;11.48;;;;;;;;;;5075263;28;20426;-82
2023/09/27 02:26:02;;;;;;;11.88;9.20;;;;;;;;;;5090440;28;20028;-81
2023/09/27 02:28:27;;;;;;;11.20;9.15;;;;;;;;;;5091814;28;20511;-81
2023/09/27 02:30:53;;;;;;;10.60;8.70;;;;;;;;;;5051853;28;20039;-82
2023/09/27 02:33:20;;;;;;;11.60;8.60;;;;;;;;;;5086096;28;20068;-81
2023/09/27 02:35:45;;;;;;;13.90;9.55;;;;;;;;;;5084395;28;20216;-80
2023/09/27 02:38:10;;;;;;;13.80;10.80;;;;;;;;;;5072899;28;20020;-80
2023/09/27 02:40:36;;;;;;;12.10;8.75;;;;;;;;;;5075482;28;20266;-80
2023/09/27 02:43:01;;;;;;;14.57;9.57;;;;;;;;;;5071223;28;20036;-80
2023/09/27 02:45:27;;;;;;;12.50;9.25;;;;;;;;;;5073515;28;20051;-81
2023/09/27 02:47:52;;;;;;;11.68;9.38;;;;;;;;;;5066987;28;20119;-81
2023/09/27 02:50:18;;;;;;;15.93;12.20;;;;;;;;;;5071768;28;20633;-81
2023/09/27 02:52:43;;;;;;;16.03;12.07;;;;;;;;;;5089169;28;20042;-82
2023/09/27 02:55:09;;;;;;;14.95;11.40;;;;;;;;;;5072103;28;20322;-82
2023/09/27 02:57:34;;;;;;;14.00;10.35;;;;;;;;;;5089635;28;20051;-81
2023/09/27 02:59:59;;;;;;;20.75;14.70;;;;;;;;;;5069198;28;20039;-82
2023/09/27 03:02:24;;;;;;;15.23;12.18;;;;;;;;;;5085635;28;20024;-82
2023/09/27 03:04:50;;;;;;;17.45;13.20;;;;;;;;;;5075228;28;20092;-81
2023/09/27 03:07:16;;;;;;;18.92;14.77;;;;;;;;;;5092046;28;20101;-82
2023/09/27 03:09:43;;;;;;;26.25;18.13;;;;;;;;;;5069659;28;20020;-82
2023/09/27 03:12:09;;;;;;;19.50;15.05;;;;;;;;;;5083839;28;20025;-81
2023/09/27 03:14:34;;;;;;;20.10;14.75;;;;;;;;;;5084132;28;20024;-81
2023/09/27 03:17:00;;;;;;;19.08;13.98;;;;;;;;;;5069764;28;20027;-82
2023/09/27 03:19:25;;;;;;;18.23;14.90;;;;;;;;;;5072042;28;20024;-82
2023/09/27 03:21:51;;;;;;;18.73;14.30;;;;;;;;;;5071637;28;20017;-81
2023/09/27 03:24:16;;;;;;;15.30;12.10;;;;;;;;;;5058951;28;20632;-82
2023/09/27 03:26:42;;;;;;;19.33;15.32;;;;;;;;;;5070530;28;20024;-82
2023/09/27 03:29:07;;;;;;;14.60;11.35;;;;;;;;;;5075189;28;20104;-81
2023/09/27 03:31:33;;;;;;;15.32;11.40;;;;;;;;;;5075988;28;20063;-80
2023/09/27 03:33:58;;;;;;;15.18;10.77;;;;;;;;;;5075424;28;20028;-80
2023/09/27 03:36:23;;;;;;;14.55;10.68;;;;;;;;;;5088895;28;20025;-82
2023/09/27 03:38:49;;;;;;;15.98;12.95;;;;;;;;;;5075004;28;20511;-81
2023/09/27 03:41:14;;;;;;;14.18;11.10;;;;;;;;;;5068343;28;20044;-83
2023/09/27 03:43:40;;;;;;;15.35;12.32;;;;;;;;;;5086400;28;20476;-81
2023/09/27 03:46:05;;;;;;;12.70;9.60;;;;;;;;;;5068978;28;20553;-81
2023/09/27 03:48:31;;;;;;;14.02;10.75;;;;;;;;;;5076794;28;20035;-82
2023/09/27 03:50:57;;;;;;;14.23;9.80;;;;;;;;;;5075666;28;20032;-82
2023/09/27 03:53:22;;;;;;;11.05;9.13;;;;;;;;;;5061956;28;20484;-83
2023/09/27 03:55:47;;;;;;;12.63;9.80;;;;;;;;;;5072046;28;20025;-82
2023/09/27 03:58:12;;;;;;;18.35;11.23;;;;;;;;;;5063967;28;20026;-83
2023/09/27 04:00:37;;;;;;;14.87;11.77;;;;;;;;;;5069395;28;20020;-83
2023/09/27 04:03:03;;;;;;;14.02;10.23;;;;;;;;;;5071164;28;20273;-83
2023/09/27 04:05:28;;;;;;;11.60;9.02;;;;;;;;;;5068311;28;20052;-82
2023/09/27 04:07:53;;;;;;;11.17;8.20;;;;;;;;;;5091968;28;20064;-82
2023/09/27 04:10:19;;;;;;;16.50;12.82;;;;;;;;;;5068863;28;20294;-82
2023/09/27 04:12:45;;;;;;;14.07;10.52;;;;;;;;;;5070090;28;20024;-82
2023/09/27 04:15:10;;;;;;;15.82;12.13;;;;;;;;;;5094783;28;20028;-82
2023/09/27 04:17:37;;;;;;;14.05;11.18;;;;;;;;;;5095543;28;20028;-81
2023/09/27 04:20:06;;;;;;;12.65;10.57;;;;;;;;;;5095130;28;20106;-82
2023/09/27 04:22:31;;;;;;;13.45;10.48;;;;;;;;;;5092086;28;20042;-82
2023/09/27 04:24:57;;;;;;;12.82;10.18;;;;;;;;;;5078056;28;20559;-81
2023/09/27 04:27:22;;;;;;;14.57;11.02;;;;;;;;;;5088624;28;20434;-81
2023/09/27 04:29:50;;;;;;;13.30;10.02;;;;;;;;;;5097717;28;20070;-82
2023/09/27 04:32:15;;;;;;;13.43;10.75;;;;;;;;;;5071715;28;20033;-82
2023/09/27 04:34:41;;;;;;;15.07;11.93;;;;;;;;;;5101231;28;20078;-83
2023/09/27 04:37:06;;;;;;;20.42;13.70;;;;;;;;;;5090803;28;20055;-81
2023/09/27 04:39:31;;;;;;;16.10;12.37;;;;;;;;;;5092224;28;20454;-81
2023/09/27 04:41:57;;;;;;;16.02;12.63;;;;;;;;;;5080885;28;20306;-80
2023/09/27 04:44:22;;;;;;;14.85;11.48;;;;;;;;;;5072990;28;20115;-81
2023/09/27 04:46:47;;;;;;;17.20;13.90;;;;;;;;;;5091703;28;20020;-80
2023/09/27 04:49:13;;;;;;;19.20;12.50;;;;;;;;;;5092396;28;20028;-78
2023/09/27 04:51:38;;;;;;;18.65;12.68;;;;;;;;;;5076026;28;20028;-81
2023/09/27 04:54:03;;;;;;;15.48;12.18;;;;;;;;;;5094005;28;20039;-82
2023/09/27 04:56:29;;;;;;;17.20;13.20;;;;;;;;;;5068576;28;20028;-81
2023/09/27 04:58:55;;;;;;;18.00;13.43;;;;;;;;;;5083977;28;20028;-82
2023/09/27 05:01:20;;;;;;;18.20;13.27;;;;;;;;;;5085678;28;20032;-82
2023/09/27 05:03:45;;;;;;;18.05;13.27;;;;;;;;;;5068115;28;20059;-82
2023/09/27 05:06:10;;;;;;;16.37;12.27;;;;;;;;;;5087883;28;20027;-82
2023/09/27 05:08:35;;;;;;;18.10;13.30;;;;;;;;;;5089552;28;20360;-82
2023/09/27 05:11:01;;;;;;;15.57;12.07;;;;;;;;;;5089331;28;20277;-82
2023/09/27 05:13:26;;;;;;;16.95;12.38;;;;;;;;;;5091085;28;20496;-82
2023/09/27 05:15:52;;;;;;;18.90;14.90;;;;;;;;;;5089131;28;20480;-82
2023/09/27 05:18:17;;;;;;;20.85;15.48;;;;;;;;;;5061990;28;20527;-82
2023/09/27 05:20:43;;;;;;;16.23;12.40;;;;;;;;;;5073888;28;20039;-82
2023/09/27 05:23:09;;;;;;;16.35;13.43;;;;;;;;;;5071394;28;20033;-81
2023/09/27 05:25:34;;;;;;;18.95;13.80;;;;;;;;;;5092400;28;20411;-82
2023/09/27 05:27:59;;;;;;;21.50;11.82;;;;;;;;;;5093328;28;20396;-82
2023/09/27 05:30:25;;;;;;;16.20;12.37;;;;;;;;;;5088750;28;20036;-82
2023/09/27 05:32:51;;;;;;;18.83;12.23;;;;;;;;;;5086135;28;20330;-82
2023/09/27 05:35:16;;;;;;;17.45;12.98;;;;;;;;;;5074050;28;20443;-82
2023/09/27 05:37:42;;;;;;;16.52;12.27;;;;;;;;;;5088884;28;20027;-82
2023/09/27 05:40:09;;;;;;;15.77;12.02;;;;;;;;;;5073927;28;20024;-82
2023/09/27 05:42:35;;;;;;;18.85;12.85;;;;;;;;;;5074899;28;20023;-82
2023/09/27 05:45:00;;;;;;;20.25;12.40;;;;;;;;;;5072419;28;20036;-82
2023/09/27 05:47:25;;;;;;;21.60;14.63;;;;;;;;;;5084056;28;20059;-82
2023/09/27 05:49:51;;;;;;;16.53;12.80;;;;;;;;;;5086587;28;20023;-82
2023/09/27 05:52:17;;;;;;;17.75;13.88;;;;;;;;;;5091748;28;20824;-83
2023/09/27 05:54:42;;;;;;;19.50;14.23;;;;;;;;;;5090423;28;20115;-82
2023/09/27 05:57:08;;;;;;;19.98;13.38;;;;;;;;;;5072455;28;20035;-83
2023/09/27 05:59:33;;;;;;;19.85;14.80;;;;;;;;;;5091459;28;20040;-83
2023/09/27 06:01:58;;;;;;;17.38;13.68;;;;;;;;;;5082012;28;20495;-82
2023/09/27 06:04:24;;;;;;;19.20;12.60;;;;;;;;;;5085748;28;20560;-83
2023/09/27 06:06:49;;;;;;;15.50;12.20;;;;;;;;;;5091076;28;20028;-82
2023/09/27 06:09:16;;;;;;;16.23;12.63;;;;;;;;;;5090081;28;20044;-83
2023/09/27 06:11:41;;;;;;;23.25;12.77;;;;;;;;;;5091739;28;20024;-83
2023/09/27 06:14:10;;;;;;;17.98;14.15;;;;;;;;;;5084419;28;20494;-82
2023/09/27 06:16:36;;;;;;;22.35;16.85;;;;;;;;;;5081336;28;20046;-82
2023/09/27 06:19:01;;;;;;;21.60;15.60;;;;;;;;;;5069604;28;20503;-82
2023/09/27 06:21:26;;;;;;;18.80;15.20;;;;;;;;;;5086044;28;20095;-82
2023/09/27 06:23:51;;;;;;;16.42;13.63;;;;;;;;;;5086809;28;20278;-82
2023/09/27 06:26:18;;;;;;;20.40;15.60;;;;;;;;;;5066282;28;20024;-82
2023/09/27 06:28:44;;;;;;;23.27;16.50;;;;;;;;;;5087383;28;20373;-82
2023/09/27 06:31:09;;;;;;;20.48;15.40;;;;;;;;;;5081540;28;20424;-82
2023/09/27 06:33:39;;;;;;;19.37;17.23;;;;;;;;;;5084469;28;20028;-82
2023/09/27 06:36:05;;;;;;;24.92;17.15;;;;;;;;;;5093156;28;20804;-82
2023/09/27 06:38:30;;;;;;;21.45;17.33;;;;;;;;;;5084023;28;20028;-82
2023/09/27 06:40:57;;;;;;;20.17;17.10;;;;;;;;;;5067381;28;20038;-82
2023/09/27 06:43:22;;;;;;;22.52;14.98;;;;;;;;;;5069700;28;20270;-82
2023/09/27 06:45:49;;;;;;;22.30;17.63;;;;;;;;;;5085523;28;20035;-82
2023/09/27 06:48:14;;;;;;;24.48;19.77;;;;;;;;;;5083892;28;20110;-82
2023/09/27 06:50:41;;;;;;;19.13;16.55;;;;;;;;;;5084529;28;20032;-82
2023/09/27 06:53:06;;;;;;;19.23;16.77;;;;;;;;;;5071692;28;20484;-83
2023/09/27 06:55:31;;;;;;;18.48;14.45;;;;;;;;;;5074891;28;20077;-83
2023/09/27 06:57:57;;;;;;;17.57;15.40;;;;;;;;;;5086528;28;20489;-82
2023/09/27 07:00:25;;;;;;;20.00;15.53;;;;;;;;;;5070844;28;20271;-82
2023/09/27 07:02:50;;;;;;;22.52;17.17;;;;;;;;;;5081248;28;20278;-82
2023/09/27 07:05:16;;;;;;;20.35;15.85;;;;;;;;;;5070284;28;20035;-82
2023/09/27 07:07:42;;;;;;;20.13;15.70;;;;;;;;;;5083034;28;20082;-82
2023/09/27 07:10:08;;;;;;;19.65;15.82;;;;;;;;;;5085180;28;20040;-83
2023/09/27 07:12:33;;;;;;;18.52;14.75;;;;;;;;;;5091215;28;20107;-83
2023/09/27 07:14:59;;;;;;;22.95;16.08;;;;;;;;;;5085602;28;20119;-82
2023/09/27 07:17:27;;;;;;;25.70;18.17;;;;;;;;;;5085856;28;20043;-82
2023/09/27 07:19:53;;;;;;;20.52;16.00;;;;;;;;;;5079769;28;20051;-82
2023/09/27 07:22:19;;;;;;;23.17;17.50;;;;;;;;;;5083963;28;20060;-82
2023/09/27 07:24:44;;;;;;;23.67;17.33;;;;;;;;;;5085497;28;20555;-82
2023/09/27 07:27:09;;;;;;;26.35;20.38;;;;;;;;;;5083642;28;20408;-82
2023/09/27 07:29:34;;;;;;;25.33;17.70;;;;;;;;;;5087658;28;20399;-82
2023/09/27 07:31:59;;;;;;;21.40;17.65;;;;;;;;;;5072684;28;20274;-83
2023/09/27 07:34:25;;;;;;;22.90;16.40;;;;;;;;;;5084812;28;20155;-82
2023/09/27 07:36:51;;;;;;;26.80;19.33;;;;;;;;;;5088908;28;20907;-82
2023/09/27 07:39:16;;;;;;;27.05;19.65;;;;;;;;;;5083417;28;20307;-82
2023/09/27 07:41:42;;;;;;;23.48;17.20;;;;;;;;;;5078460;28;20117;-83
2023/09/27 07:44:09;;;;;;;23.25;16.67;;;;;;;;;;5074172;28;20036;-82
2023/09/27 07:46:35;;;;;;;20.75;16.20;;;;;;;;;;5092034;28;20112;-82
2023/09/27 07:49:00;;;;;;;19.98;16.65;;;;;;;;;;5083988;28;20159;-80
2023/09/27 07:51:25;;;;;;;21.08;16.35;;;;;;;;;;5083197;28;20051;-80
2023/09/27 07:53:51;;;;;;;23.20;17.10;;;;;;;;;;5086049;28;20028;-81
2023/09/27 07:56:19;;;;;;;22.75;17.33;;;;;;;;;;5089929;28;20281;-81
2023/09/27 07:58:45;;;;;;;22.73;18.80;;;;;;;;;;5091307;28;20044;-81
2023/09/27 08:01:12;;;;;;;24.90;18.20;;;;;;;;;;5088367;28;20479;-81
2023/09/27 08:03:38;;;;;;;21.73;16.63;;;;;;;;;;5077333;28;20085;-81
2023/09/27 08:06:04;;;;;;;19.60;15.55;;;;;;;;;;5086090;28;20028;-81
2023/09/27 08:08:29;;;;;;;23.33;17.17;;;;;;;;;;5076512;28;20032;-81
2023/09/27 08:10:57;;;;;;;27.77;18.58;;;;;;;;;;5083495;28;20114;-81
2023/09/27 08:13:22;;;;;;;25.33;18.77;;;;;;;;;;5088386;28;20044;-81
2023/09/27 08:15:51;;;;;;;23.92;20.40;;;;;;;;;;5091414;28;20025;-81
2023/09/27 08:18:16;;;;;;;23.95;17.23;;;;;;;;;;5089457;28;20035;-81
2023/09/27 08:20:41;;;;;;;23.00;16.70;;;;;;;;;;5076405;28;20024;-81
2023/09/27 08:23:06;;;;;;;22.73;17.20;;;;;;;;;;5084721;28;20027;-81
2023/09/27 08:25:32;;;;;;;20.90;16.65;;;;;;;;;;5089820;28;20268;-81
2023/09/27 08:27:57;;;;;;;27.20;18.98;;;;;;;;;;5073595;28;20518;-81
2023/09/27 08:30:23;;;;;;;22.40;18.75;;;;;;;;;;5090574;28;20041;-81
2023/09/27 08:32:48;;;;;;;22.02;16.15;;;;;;;;;;5089098;28;20372;-81
2023/09/27 08:35:14;;;;;;;22.33;16.98;;;;;;;;;;5086726;28;20032;-81
2023/09/27 08:37:39;;;;;;;28.65;22.05;;;;;;;;;;5075481;28;20111;-81
2023/09/27 08:40:05;;;;;;;27.45;23.67;;;;;;;;;;5085822;28;20050;-81
2023/09/27 08:42:31;;;;;;;23.15;19.35;;;;;;;;;;5072786;28;20029;-81
2023/09/27 08:44:57;;;;;;;27.50;18.88;;;;;;;;;;5088693;28;20028;-81
2023/09/27 08:47:23;;;;;;;24.30;18.38;;;;;;;;;;5090309;28;20377;-81
2023/09/27 08:49:49;;;;;;;22.83;17.67;;;;;;;;;;5066895;28;20039;-80
2023/09/27 08:52:15;;;;;;;17.67;14.90;;;;;;;;;;5092479;28;20548;-81
2023/09/27 08:54:40;;;;;;;22.50;17.67;;;;;;;;;;5076276;28;20115;-81
2023/09/27 08:57:05;;;;;;;24.87;16.47;;;;;;;;;;5070645;28;20221;-81
2023/09/27 08:59:31;;;;;;;20.13;15.65;;;;;;;;;;5094588;28;20318;-81
2023/09/27 09:01:57;;;;;;;19.55;14.45;;;;;;;;;;5088436;28;20365;-81
2023/09/27 09:04:23;;;;;;;24.58;16.75;;;;;;;;;;5085793;28;20035;-81
2023/09/27 09:06:50;;;;;;;24.67;20.10;;;;;;;;;;5068888;28;20024;-81
2023/09/27 09:09:15;;;;;;;28.92;20.13;;;;;;;;;;5074739;28;20484;-81
2023/09/27 09:11:43;;;;;;;20.48;17.15;;;;;;;;;;5073896;28;20115;-81
2023/09/27 09:14:10;;;;;;;19.60;15.30;;;;;;;;;;5083632;28;20032;-81
2023/09/27 09:16:39;;;;;;;25.23;21.60;;;;;;;;;;5114281;22;20113;-80
2023/09/27 09:19:23;;;;;;;25.73;20.80;;;;;;;;;;5090874;28;20074;-78
2023/09/27 09:21:58;;;;;;;21.98;15.63;;;;;;;;;;5097492;28;20054;-77
2023/09/27 09:24:24;;;;;;;19.50;13.13;;;;;;;;;;5098894;28;20032;-80
2023/09/27 09:27:03;;;;;;;20.88;14.27;;;;;;;;;;5090076;28;20063;-80
2023/09/27 09:29:43;;;;;;;18.75;13.35;;;;;;;;;;5104452;28;20064;-80
2023/09/27 09:32:08;;;;;;;16.85;10.75;;;;;;;;;;5108850;28;20080;-76
2023/09/27 09:34:39;;;;;;;21.75;14.90;;;;;;;;;;5105465;28;20131;-80
2023/09/27 09:37:14;;;;;;;21.35;13.23;;;;;;;;;;5072861;28;20622;-83
2023/09/27 09:39:39;;;;;;;23.98;13.18;;;;;;;;;;5085564;28;20024;-82
2023/09/27 09:42:08;;;;;;;18.15;14.32;;;;;;;;;;5103427;28;20081;-80
2023/09/27 09:44:34;;;;;;;19.88;14.70;;;;;;;;;;5086714;28;20024;-83
2023/09/27 09:47:08;;;;;;;18.13;12.65;;;;;;;;;;5089981;28;20570;-82
2023/09/27 09:49:34;;;;;;;15.70;12.10;;;;;;;;;;5070326;28;20046;-81
2023/09/27 09:52:01;;;;;;;17.02;13.20;;;;;;;;;;5101975;28;20054;-82
2023/09/27 09:54:36;;;;;;;23.25;17.45;;;;;;;;;;5102176;28;20027;-82
2023/09/27 09:57:04;;;;;;;17.10;12.20;;;;;;;;;;5085408;28;20111;-83
2023/09/27 09:59:33;;;;;;;14.57;10.93;;;;;;;;;;5092738;28;20024;-81
2023/09/27 10:01:59;;;;;;;11.98;10.60;;;;;;;;;;5091013;28;20046;-82
2023/09/27 10:04:26;;;;;;;19.17;11.95;;;;;;;;;;5082750;28;20027;-83
2023/09/27 10:06:52;;;;;;;17.58;9.73;;;;;;;;;;5080758;28;20028;-78
2023/09/27 10:09:17;;;;;;;17.67;11.57;;;;;;;;;;5101588;28;20103;-80
2023/09/27 10:11:44;;;;;;;14.10;9.82;;;;;;;;;;5102891;28;20027;-80
2023/09/27 10:14:10;;;;;;;13.52;11.32;;;;;;;;;;5078279;28;20028;-79
2023/09/27 10:16:36;;;;;;;17.27;13.40;;;;;;;;;;5099776;28;20031;-81
2023/09/27 10:19:01;;;;;;;16.92;13.13;;;;;;;;;;5082317;28;20115;-80
2023/09/27 10:21:26;;;;;;;16.07;10.30;;;;;;;;;;5084549;28;20046;-82
2023/09/27 10:23:53;;;;;;;14.13;9.68;;;;;;;;;;5083297;28;20066;-81
2023/09/27 10:26:27;;;;;;;12.05;9.15;;;;;;;;;;5081436;28;20028;-81
2023/09/27 10:29:10;;;;;;;13.35;10.95;;;;;;;;;;5068751;28;20077;-82
2023/09/27 10:31:37;;;;;;;15.45;11.15;;;;;;;;;;5077902;28;20039;-82
2023/09/27 10:34:03;;;;;;;15.35;13.05;;;;;;;;;;5074607;28;20024;-80
2023/09/27 10:36:29;;;;;;;14.02;11.25;;;;;;;;;;5075130;28;20031;-81
2023/09/27 10:38:55;;;;;;;19.13;10.27;;;;;;;;;;5095539;28;20070;-81
2023/09/27 10:41:32;;;;;;;20.13;11.40;;;;;;;;;;5083844;28;20537;-80
2023/09/27 10:44:02;;;;;;;15.38;8.32;;;;;;;;;;5091678;28;20032;-80
2023/09/27 10:46:27;;;;;;;13.30;9.65;;;;;;;;;;5097590;28;20041;-82
2023/09/27 10:48:53;;;;;;;14.35;9.13;;;;;;;;;;5084579;28;20115;-82
2023/09/27 10:51:20;;;;;;;15.35;9.00;;;;;;;;;;5101855;28;20077;-82
2023/09/27 10:53:45;;;;;;;14.52;9.02;;;;;;;;;;5097559;28;20551;-82
2023/09/27 10:56:10;;;;;;;13.10;9.52;;;;;;;;;;5106979;28;20047;-81
2023/09/27 10:58:43;;;;;;;17.98;11.13;;;;;;;;;;5099846;28;20093;-82
2023/09/27 11:01:09;;;;;;;15.05;10.57;;;;;;;;;;5099694;28;20027;-82
2023/09/27 11:03:34;;;;;;;13.45;9.27;;;;;;;;;;5080314;28;20020;-82
2023/09/27 11:06:09;;;;;;;19.08;9.57;;;;;;;;;;5066225;28;20092;-83
2023/09/27 11:08:34;;;;;;;12.85;8.50;;;;;;;;;;5084177;28;20031;-83
2023/09/27 11:11:00;;;;;;;16.00;11.80;;;;;;;;;;5103613;28;20020;-83
2023/09/27 11:13:29;;;;;;;16.73;13.50;;;;;;;;;;5069435;28;20032;-81
2023/09/27 11:16:05;;;;;;;14.93;10.60;;;;;;;;;;5097366;28;20038;-82
2023/09/27 11:18:32;;;;;;;12.30;9.23;;;;;;;;;;5096933;28;20036;-83
2023/09/27 11:21:06;;;;;;;12.02;8.93;;;;;;;;;;5085180;28;20095;-82
2023/09/27 11:23:49;;;;;;;16.00;11.75;;;;;;;;;;5079367;28;20028;-83
2023/09/27 11:26:17;;;;;;;15.25;10.88;;;;;;;;;;5073454;28;20067;-82
2023/09/27 11:28:42;;;;;;;15.90;11.02;;;;;;;;;;5082685;28;20062;-83
2023/09/27 11:31:08;;;;;;;13.52;8.95;;;;;;;;;;5100105;28;20035;-83
2023/09/27 11:33:33;;;;;;;16.87;12.93;;;;;;;;;;5097823;28;20058;-82
2023/09/27 11:36:03;;;;;;;12.05;9.18;;;;;;;;;;5065371;28;20037;-83
2023/09/27 11:38:28;;;;;;;21.83;16.20;;;;;;;;;;5108122;28;20047;-80
2023/09/27 11:40:53;;;;;;;24.87;16.73;;;;;;;;;;5105280;28;20807;-83
2023/09/27 11:43:19;;;;;;;22.75;16.17;;;;;;;;;;5098285;28;20099;-83
2023/09/27 11:45:48;;;;;;;18.37;9.83;;;;;;;;;;5102097;28;20030;-83
2023/09/27 11:48:13;;;;;;;18.77;14.38;;;;;;;;;;5099643;28;20291;-83
2023/09/27 11:50:39;;;;;;;19.27;15.98;;;;;;;;;;5087190;28;20035;-82
2023/09/27 11:53:04;;;;;;;14.13;9.32;;;;;;;;;;5102360;28;20032;-83
2023/09/27 11:55:29;;;;;;;13.43;10.18;;;;;;;;;;5080359;28;20136;-83
2023/09/27 11:57:59;;;;;;;10.90;8.10;;;;;;;;;;5088961;28;20024;-82
2023/09/27 12:00:24;;;;;;;17.23;13.50;;;;;;;;;;5101455;28;20107;-83
2023/09/27 12:02:50;;;;;;;13.68;10.02;;;;;;;;;;5084190;28;20050;-82
2023/09/27 12:05:16;;;;;;;16.55;8.60;;;;;;;;;;5086574;28;20051;-82
2023/09/27 12:07:43;;;;;;;9.63;8.13;;;;;;;;;;5097696;28;20374;-82
2023/09/27 12:10:09;;;;;;;10.23;8.68;;;;;;;;;;5079196;28;20035;-83
2023/09/27 12:12:34;;;;;;;11.95;7.30;;;;;;;;;;5098687;28;20024;-83
2023/09/27 12:15:00;;;;;;;12.93;8.30;;;;;;;;;;5082002;28;20031;-83
2023/09/27 12:17:25;;;;;;;13.02;7.18;;;;;;;;;;5100051;28;20036;-83
2023/09/27 12:19:50;;;;;;;12.30;6.75;;;;;;;;;;5069133;28;20046;-81
2023/09/27 12:22:16;;;;;;;9.90;6.53;;;;;;;;;;5080191;28;20028;-83
2023/09/27 12:24:42;;;;;;;12.65;8.93;;;;;;;;;;5079598;28;20488;-83
2023/09/27 12:27:07;;;;;;;10.60;6.20;;;;;;;;;;5075604;28;20028;-81
2023/09/27 12:29:33;;;;;;;8.63;7.00;;;;;;;;;;5106255;28;20305;-83
2023/09/27 12:31:58;;;;;;;11.93;6.53;;;;;;;;;;5106757;28;20043;-84
2023/09/27 12:34:23;;;;;;;7.00;5.00;;;;;;;;;;5108832;28;20028;-81
2023/09/27 12:36:48;;;;;;;14.53;8.03;;;;;;;;;;5081979;28;20035;-83
2023/09/27 12:39:14;;;;;;;11.00;6.13;;;;;;;;;;5087434;28;20516;-83
2023/09/27 12:41:39;;;;;;;10.20;6.38;;;;;;;;;;5102420;28;20020;-81
2023/09/27 12:44:04;;;;;;;10.23;7.15;;;;;;;;;;5106074;28;20450;-81
2023/09/27 12:46:29;;;;;;;8.98;5.35;;;;;;;;;;5104718;28;20065;-81
2023/09/27 12:48:55;;;;;;;7.97;4.40;;;;;;;;;;5109220;28;20053;-81
2023/09/27 12:51:20;;;;;;;8.53;5.60;;;;;;;;;;5105416;28;20478;-81
2023/09/27 12:53:45;;;;;;;6.90;3.80;;;;;;;;;;5065554;28;20093;-81
2023/09/27 12:56:11;;;;;;;11.68;6.55;;;;;;;;;;5099681;28;20078;-81
2023/09/27 12:58:36;;;;;;;8.68;5.45;;;;;;;;;;5108959;28;20027;-80
2023/09/27 13:01:01;;;;;;;11.18;5.75;;;;;;;;;;5102856;28;20487;-79
2023/09/27 13:03:27;;;;;;;9.23;5.55;;;;;;;;;;5105660;28;20034;-81
2023/09/27 13:05:52;;;;;;;6.37;4.80;;;;;;;;;;5092594;28;20038;-81
2023/09/27 13:08:18;;;;;;;7.83;4.53;;;;;;;;;;5089776;28;20073;-81
2023/09/27 13:10:43;;;;;;;10.30;5.28;;;;;;;;;;5105912;28;20040;-81
2023/09/27 13:13:09;;;;;;;6.20;4.00;;;;;;;;;;5071493;28;20118;-81
2023/09/27 13:15:35;;;;;;;7.95;4.43;;;;;;;;;;5106347;28;20020;-81
2023/09/27 13:18:00;;;;;;;8.77;7.13;;;;;;;;;;5082184;28;20038;-80
2023/09/27 13:20:25;;;;;;;6.63;4.80;;;;;;;;;;5082914;28;20040;-81
2023/09/27 13:22:50;;;;;;;6.40;3.50;;;;;;;;;;5078074;28;20172;-81
2023/09/27 13:25:16;;;;;;;6.07;4.60;;;;;;;;;;5100242;28;20528;-81
2023/09/27 13:27:41;;;;;;;8.35;4.68;;;;;;;;;;5092885;28;20062;-79
2023/09/27 13:30:07;;;;;;;8.70;3.63;;;;;;;;;;5091327;28;20032;-81
2023/09/27 13:32:32;;;;;;;5.70;3.38;;;;;;;;;;5101773;28;20138;-82
2023/09/27 13:34:58;;;;;;;7.28;3.85;;;;;;;;;;5076603;28;20034;-80
2023/09/27 13:37:23;;;;;;;7.53;6.18;;;;;;;;;;5085181;28;20028;-81
2023/09/27 13:39:48;;;;;;;6.85;4.82;;;;;;;;;;5086729;28;20020;-81
2023/09/27 13:42:14;;;;;;;7.63;4.53;;;;;;;;;;5087613;28;20020;-79
2023/09/27 13:44:39;;;;;;;6.90;4.10;;;;;;;;;;5101492;28;20530;-82
2023/09/27 13:47:04;;;;;;;4.67;2.87;;;;;;;;;;5080071;28;20105;-79
2023/09/27 13:49:29;;;;;;;5.80;4.07;;;;;;;;;;5078769;28;20028;-81
2023/09/27 13:51:54;;;;;;;9.03;4.60;;;;;;;;;;5101173;28;20357;-82
2023/09/27 13:54:19;;;;;;;7.67;3.23;;;;;;;;;;5088096;28;20391;-77
2023/09/27 13:56:45;;;;;;;7.77;4.13;;;;;;;;;;5104636;28;20028;-81
2023/09/27 13:59:10;;;;;;;5.88;3.45;;;;;;;;;;5087499;28;20035;-80
2023/09/27 14:01:35;;;;;;;6.30;4.00;;;;;;;;;;5083621;28;20548;-81
2023/09/27 14:04:01;;;;;;;8.55;3.75;;;;;;;;;;5082330;28;20032;-84
2023/09/27 14:06:26;;;;;;;5.27;4.30;;;;;;;;;;5084114;28;20035;-75
2023/09/27 14:08:51;;;;;;;7.78;4.32;;;;;;;;;;5103102;28;20356;-75
2023/09/27 14:11:17;;;;;;;6.90;4.50;;;;;;;;;;5100205;28;20032;-75
2023/09/27 14:13:45;;;;;;;8.52;5.53;;;;;;;;;;5093260;28;20275;-76